CheckWX is a tool to help pilots better visualize weather data.  It is not intended as a substitute for an official pre-flight weather briefing.

01:12:02 UTC

WMKJ TAF
Senai International Airport
Senai, Malaysia
TAF WMKJ 050500Z 0506/0606 VRB08G26KT 9999 FEW018 TEMPO 0508/0512 3000 TSRA FEW016CB SCT018 BECMG 0513/0515 VRB02KT FEW023

Jul-5@
06:00 UTC

Jul-5 @ 06:00 UTC

Jul-5@
13:00 UTC

Jul-5 @ 13:00 UTC

TAF WMKJ 050500Z 0506/0606 VRB08G26KT 9999 FEW018

Expired

Wind
  • Variable at 8 KTS
  • {Gusting to 26 KTS
Cloud Levels
  • Few at 1,800' AGL

Jul-5@
08:00 UTC

Jul-5 @ 08:00 UTC

Jul-5@
12:00 UTC

Jul-5 @ 12:00 UTC

TEMPO 0508/0512 3000 TSRA FEW016CB SCT018

Expired

Conditions
Thunderstorm, Rain
Cloud Levels
  • Few at 1,600' AGL
  • Scattered at 1,800' AGL

Jul-5@
13:00 UTC

Jul-5 @ 13:00 UTC

Jul-6@
06:00 UTC

Jul-6 @ 06:00 UTC

BECMG 0513/0515 VRB02KT FEW023

Becoming

Becoming Conditions expected by Sun, Jul 5, 2020 @ 15:00 UTC

Wind
  • Variable at 2 KTS
Cloud Levels
  • Few at 2,300' AGL